sensor_id;sensor_type;location;lat;lon;timestamp;P1;durP1;ratioP1;P2;durP2;ratioP2
72649;SDS011;61467;50.674;4.618;2023-04-15T00:02:14;10.18;;;4.55;;
72649;SDS011;61467;50.674;4.618;2023-04-15T00:04:44;9.20;;;4.18;;
72649;SDS011;61467;50.674;4.618;2023-04-15T00:07:10;8.63;;;3.70;;
72649;SDS011;61467;50.674;4.618;2023-04-15T00:09:38;7.40;;;3.90;;
72649;SDS011;61467;50.674;4.618;2023-04-15T00:12:04;7.45;;;3.65;;
72649;SDS011;61467;50.674;4.618;2023-04-15T00:14:32;8.60;;;3.50;;
72649;SDS011;61467;50.674;4.618;2023-04-15T00:17:00;8.25;;;3.60;;
72649;SDS011;61467;50.674;4.618;2023-04-15T00:19:27;8.40;;;3.70;;
72649;SDS011;61467;50.674;4.618;2023-04-15T00:21:56;8.33;;;3.57;;
72649;SDS011;61467;50.674;4.618;2023-04-15T00:24:23;7.85;;;3.28;;
72649;SDS011;61467;50.674;4.618;2023-04-15T00:26:50;8.32;;;3.67;;
72649;SDS011;61467;50.674;4.618;2023-04-15T00:29:16;8.05;;;3.10;;
72649;SDS011;61467;50.674;4.618;2023-04-15T00:31:43;8.18;;;3.13;;
72649;SDS011;61467;50.674;4.618;2023-04-15T00:34:10;8.27;;;3.07;;
72649;SDS011;61467;50.674;4.618;2023-04-15T00:36:37;8.65;;;3.53;;
72649;SDS011;61467;50.674;4.618;2023-04-15T00:39:05;8.48;;;3.72;;
72649;SDS011;61467;50.674;4.618;2023-04-15T00:41:32;8.02;;;3.63;;
72649;SDS011;61467;50.674;4.618;2023-04-15T00:43:59;12.90;;;4.32;;
72649;SDS011;61467;50.674;4.618;2023-04-15T00:46:27;7.63;;;3.90;;
72649;SDS011;61467;50.674;4.618;2023-04-15T00:48:55;8.60;;;3.90;;
72649;SDS011;61467;50.674;4.618;2023-04-15T00:51:22;9.15;;;4.30;;
72649;SDS011;61467;50.674;4.618;2023-04-15T00:53:49;10.52;;;4.28;;
72649;SDS011;61467;50.674;4.618;2023-04-15T00:56:19;8.13;;;3.90;;
72649;SDS011;61467;50.674;4.618;2023-04-15T00:58:48;8.73;;;4.40;;
72649;SDS011;61467;50.674;4.618;2023-04-15T01:01:16;8.98;;;4.10;;
72649;SDS011;61467;50.674;4.618;2023-04-15T01:03:46;8.18;;;4.35;;
72649;SDS011;61467;50.674;4.618;2023-04-15T01:06:13;8.73;;;4.45;;
72649;SDS011;61467;50.674;4.618;2023-04-15T01:08:40;8.35;;;4.15;;
72649;SDS011;61467;50.674;4.618;2023-04-15T01:11:07;8.63;;;4.43;;
72649;SDS011;61467;50.674;4.618;2023-04-15T01:13:37;8.35;;;4.15;;
72649;SDS011;61467;50.674;4.618;2023-04-15T01:16:04;10.90;;;4.68;;
72649;SDS011;61467;50.674;4.618;2023-04-15T01:18:32;8.45;;;4.07;;
72649;SDS011;61467;50.674;4.618;2023-04-15T01:21:00;10.43;;;3.85;;
72649;SDS011;61467;50.674;4.618;2023-04-15T01:23:27;8.07;;;3.33;;
72649;SDS011;61467;50.674;4.618;2023-04-15T01:25:56;10.15;;;3.67;;
72649;SDS011;61467;50.674;4.618;2023-04-15T01:28:24;9.07;;;3.83;;
72649;SDS011;61467;50.674;4.618;2023-04-15T01:31:03;9.98;;;3.88;;
72649;SDS011;61467;50.674;4.618;2023-04-15T01:33:31;9.82;;;3.70;;
72649;SDS011;61467;50.674;4.618;2023-04-15T01:35:58;6.97;;;3.53;;
72649;SDS011;61467;50.674;4.618;2023-04-15T01:38:25;7.03;;;3.00;;
72649;SDS011;61467;50.674;4.618;2023-04-15T01:40:52;7.18;;;2.88;;
72649;SDS011;61467;50.674;4.618;2023-04-15T01:43:21;7.40;;;2.72;;
72649;SDS011;61467;50.674;4.618;2023-04-15T01:45:47;7.13;;;3.03;;
72649;SDS011;61467;50.674;4.618;2023-04-15T01:48:14;7.63;;;3.03;;
72649;SDS011;61467;50.674;4.618;2023-04-15T01:50:42;6.03;;;2.67;;
72649;SDS011;61467;50.674;4.618;2023-04-15T01:53:08;7.82;;;2.90;;
72649;SDS011;61467;50.674;4.618;2023-04-15T01:55:35;6.13;;;2.60;;
72649;SDS011;61467;50.674;4.618;2023-04-15T01:58:02;6.95;;;2.53;;
72649;SDS011;61467;50.674;4.618;2023-04-15T02:00:30;6.27;;;2.63;;
72649;SDS011;61467;50.674;4.618;2023-04-15T02:02:57;6.47;;;2.50;;
72649;SDS011;61467;50.674;4.618;2023-04-15T02:05:24;6.57;;;3.00;;
72649;SDS011;61467;50.674;4.618;2023-04-15T02:07:51;6.68;;;2.80;;
72649;SDS011;61467;50.674;4.618;2023-04-15T02:10:19;5.53;;;2.00;;
72649;SDS011;61467;50.674;4.618;2023-04-15T02:12:45;5.90;;;2.30;;
72649;SDS011;61467;50.674;4.618;2023-04-15T02:15:12;8.15;;;2.97;;
72649;SDS011;61467;50.674;4.618;2023-04-15T02:17:41;6.45;;;2.83;;
72649;SDS011;61467;50.674;4.618;2023-04-15T02:20:10;7.05;;;2.50;;
72649;SDS011;61467;50.674;4.618;2023-04-15T02:22:37;7.07;;;2.60;;
72649;SDS011;61467;50.674;4.618;2023-04-15T02:25:04;6.70;;;2.87;;
72649;SDS011;61467;50.674;4.618;2023-04-15T02:27:32;6.03;;;2.70;;
72649;SDS011;61467;50.674;4.618;2023-04-15T02:29:59;7.63;;;2.83;;
72649;SDS011;61467;50.674;4.618;2023-04-15T02:32:28;7.50;;;3.00;;
72649;SDS011;61467;50.674;4.618;2023-04-15T02:34:58;7.18;;;2.70;;
72649;SDS011;61467;50.674;4.618;2023-04-15T02:37:28;7.00;;;3.00;;
72649;SDS011;61467;50.674;4.618;2023-04-15T02:39:55;6.60;;;3.00;;
72649;SDS011;61467;50.674;4.618;2023-04-15T02:42:22;6.80;;;2.75;;
72649;SDS011;61467;50.674;4.618;2023-04-15T02:44:51;7.25;;;3.40;;
72649;SDS011;61467;50.674;4.618;2023-04-15T02:47:19;6.65;;;3.22;;
72649;SDS011;61467;50.674;4.618;2023-04-15T02:49:45;6.40;;;2.37;;
72649;SDS011;61467;50.674;4.618;2023-04-15T02:52:14;7.93;;;2.92;;
72649;SDS011;61467;50.674;4.618;2023-04-15T02:54:41;8.68;;;2.83;;
72649;SDS011;61467;50.674;4.618;2023-04-15T02:57:07;6.32;;;2.80;;
72649;SDS011;61467;50.674;4.618;2023-04-15T02:59:35;8.05;;;3.13;;
72649;SDS011;61467;50.674;4.618;2023-04-15T03:02:03;7.13;;;2.73;;
72649;SDS011;61467;50.674;4.618;2023-04-15T03:04:31;6.95;;;3.10;;
72649;SDS011;61467;50.674;4.618;2023-04-15T03:06:59;7.43;;;2.95;;
72649;SDS011;61467;50.674;4.618;2023-04-15T03:09:28;7.15;;;2.85;;
72649;SDS011;61467;50.674;4.618;2023-04-15T03:11:55;7.03;;;3.38;;
72649;SDS011;61467;50.674;4.618;2023-04-15T03:14:21;7.37;;;3.10;;
72649;SDS011;61467;50.674;4.618;2023-04-15T03:16:48;6.35;;;3.22;;
72649;SDS011;61467;50.674;4.618;2023-04-15T03:19:16;5.85;;;2.92;;
72649;SDS011;61467;50.674;4.618;2023-04-15T03:21:43;7.10;;;3.30;;
72649;SDS011;61467;50.674;4.618;2023-04-15T03:24:09;9.20;;;3.10;;
72649;SDS011;61467;50.674;4.618;2023-04-15T03:26:38;7.03;;;3.07;;
72649;SDS011;61467;50.674;4.618;2023-04-15T03:29:05;7.18;;;3.20;;
72649;SDS011;61467;50.674;4.618;2023-04-15T03:31:31;7.95;;;3.65;;
72649;SDS011;61467;50.674;4.618;2023-04-15T03:33:58;8.27;;;3.90;;
72649;SDS011;61467;50.674;4.618;2023-04-15T03:36:25;9.30;;;4.10;;
72649;SDS011;61467;50.674;4.618;2023-04-15T03:38:54;8.40;;;4.03;;
72649;SDS011;61467;50.674;4.618;2023-04-15T03:41:22;7.82;;;4.07;;
72649;SDS011;61467;50.674;4.618;2023-04-15T03:43:50;8.95;;;4.35;;
72649;SDS011;61467;50.674;4.618;2023-04-15T03:46:17;10.68;;;4.43;;
72649;SDS011;61467;50.674;4.618;2023-04-15T03:48:44;10.70;;;4.68;;
72649;SDS011;61467;50.674;4.618;2023-04-15T03:51:10;10.03;;;4.40;;
72649;SDS011;61467;50.674;4.618;2023-04-15T03:53:37;10.65;;;4.05;;
72649;SDS011;61467;50.674;4.618;2023-04-15T03:56:04;11.38;;;4.93;;
72649;SDS011;61467;50.674;4.618;2023-04-15T03:58:31;8.68;;;4.45;;
72649;SDS011;61467;50.674;4.618;2023-04-15T04:01:00;9.15;;;4.68;;
72649;SDS011;61467;50.674;4.618;2023-04-15T04:03:26;9.27;;;4.13;;
72649;SDS011;61467;50.674;4.618;2023-04-15T04:05:53;9.13;;;4.32;;
72649;SDS011;61467;50.674;4.618;2023-04-15T04:08:20;9.50;;;4.70;;
72649;SDS011;61467;50.674;4.618;2023-04-15T04:10:47;9.30;;;4.80;;
72649;SDS011;61467;50.674;4.618;2023-04-15T04:13:14;8.13;;;4.20;;
72649;SDS011;61467;50.674;4.618;2023-04-15T04:15:41;8.27;;;3.97;;
72649;SDS011;61467;50.674;4.618;2023-04-15T04:18:09;8.75;;;4.03;;
72649;SDS011;61467;50.674;4.618;2023-04-15T04:20:36;11.50;;;5.13;;
72649;SDS011;61467;50.674;4.618;2023-04-15T04:23:03;8.82;;;4.43;;
72649;SDS011;61467;50.674;4.618;2023-04-15T04:25:30;8.60;;;4.85;;
72649;SDS011;61467;50.674;4.618;2023-04-15T04:27:57;8.87;;;4.50;;
72649;SDS011;61467;50.674;4.618;2023-04-15T04:30:24;10.25;;;4.38;;
72649;SDS011;61467;50.674;4.618;2023-04-15T04:32:50;10.82;;;5.18;;
72649;SDS011;61467;50.674;4.618;2023-04-15T04:35:19;10.18;;;4.93;;
72649;SDS011;61467;50.674;4.618;2023-04-15T04:37:46;10.40;;;5.20;;
72649;SDS011;61467;50.674;4.618;2023-04-15T04:40:12;12.67;;;5.00;;
72649;SDS011;61467;50.674;4.618;2023-04-15T04:42:39;10.50;;;4.80;;
72649;SDS011;61467;50.674;4.618;2023-04-15T04:45:06;10.40;;;5.35;;
72649;SDS011;61467;50.674;4.618;2023-04-15T04:47:34;9.52;;;4.88;;
72649;SDS011;61467;50.674;4.618;2023-04-15T04:50:01;8.88;;;4.88;;
72649;SDS011;61467;50.674;4.618;2023-04-15T04:52:29;8.10;;;4.47;;
72649;SDS011;61467;50.674;4.618;2023-04-15T04:54:56;9.82;;;5.13;;
72649;SDS011;61467;50.674;4.618;2023-04-15T04:57:23;9.70;;;4.88;;
72649;SDS011;61467;50.674;4.618;2023-04-15T04:59:50;10.43;;;5.50;;
72649;SDS011;61467;50.674;4.618;2023-04-15T05:02:16;11.55;;;5.13;;
72649;SDS011;61467;50.674;4.618;2023-04-15T05:04:45;10.33;;;4.53;;
72649;SDS011;61467;50.674;4.618;2023-04-15T05:07:13;9.35;;;5.20;;
72649;SDS011;61467;50.674;4.618;2023-04-15T05:09:41;10.50;;;5.38;;
72649;SDS011;61467;50.674;4.618;2023-04-15T05:12:08;11.32;;;4.90;;
72649;SDS011;61467;50.674;4.618;2023-04-15T05:14:39;10.27;;;5.82;;
72649;SDS011;61467;50.674;4.618;2023-04-15T05:17:05;12.10;;;5.03;;
72649;SDS011;61467;50.674;4.618;2023-04-15T05:19:33;8.40;;;5.10;;
72649;SDS011;61467;50.674;4.618;2023-04-15T05:21:59;9.23;;;5.10;;
72649;SDS011;61467;50.674;4.618;2023-04-15T05:24:26;10.82;;;5.68;;
72649;SDS011;61467;50.674;4.618;2023-04-15T05:26:54;11.90;;;4.90;;
72649;SDS011;61467;50.674;4.618;2023-04-15T05:29:23;14.77;;;5.93;;
72649;SDS011;61467;50.674;4.618;2023-04-15T05:31:49;10.13;;;5.70;;
72649;SDS011;61467;50.674;4.618;2023-04-15T05:34:16;10.93;;;4.78;;
72649;SDS011;61467;50.674;4.618;2023-04-15T05:36:43;9.43;;;4.90;;
72649;SDS011;61467;50.674;4.618;2023-04-15T05:39:10;8.82;;;4.47;;
72649;SDS011;61467;50.674;4.618;2023-04-15T05:41:37;8.63;;;5.00;;
72649;SDS011;61467;50.674;4.618;2023-04-15T05:44:05;10.25;;;4.70;;
72649;SDS011;61467;50.674;4.618;2023-04-15T05:46:32;12.07;;;5.40;;
72649;SDS011;61467;50.674;4.618;2023-04-15T05:48:59;8.38;;;4.40;;
72649;SDS011;61467;50.674;4.618;2023-04-15T05:51:26;10.43;;;5.20;;
72649;SDS011;61467;50.674;4.618;2023-04-15T05:53:52;10.03;;;4.50;;
72649;SDS011;61467;50.674;4.618;2023-04-15T05:56:19;10.45;;;4.75;;
72649;SDS011;61467;50.674;4.618;2023-04-15T05:58:46;9.80;;;4.85;;
72649;SDS011;61467;50.674;4.618;2023-04-15T06:01:14;12.52;;;4.82;;
72649;SDS011;61467;50.674;4.618;2023-04-15T06:03:41;10.45;;;4.70;;
72649;SDS011;61467;50.674;4.618;2023-04-15T06:06:08;9.13;;;4.13;;
72649;SDS011;61467;50.674;4.618;2023-04-15T06:08:35;10.23;;;4.82;;
72649;SDS011;61467;50.674;4.618;2023-04-15T06:11:02;8.77;;;4.28;;
72649;SDS011;61467;50.674;4.618;2023-04-15T06:13:30;9.25;;;4.43;;
72649;SDS011;61467;50.674;4.618;2023-04-15T06:15:59;10.32;;;4.38;;
72649;SDS011;61467;50.674;4.618;2023-04-15T06:18:27;8.03;;;4.07;;
72649;SDS011;61467;50.674;4.618;2023-04-15T06:20:54;10.60;;;3.80;;
72649;SDS011;61467;50.674;4.618;2023-04-15T06:23:21;8.82;;;4.47;;
72649;SDS011;61467;50.674;4.618;2023-04-15T06:25:48;9.73;;;4.20;;
72649;SDS011;61467;50.674;4.618;2023-04-15T06:28:14;8.90;;;4.15;;
72649;SDS011;61467;50.674;4.618;2023-04-15T06:30:41;10.87;;;4.33;;
72649;SDS011;61467;50.674;4.618;2023-04-15T06:33:08;9.80;;;4.07;;
72649;SDS011;61467;50.674;4.618;2023-04-15T06:35:36;9.32;;;4.90;;
72649;SDS011;61467;50.674;4.618;2023-04-15T06:38:03;8.30;;;3.97;;
72649;SDS011;61467;50.674;4.618;2023-04-15T06:40:30;10.05;;;4.20;;
72649;SDS011;61467;50.674;4.618;2023-04-15T06:42:57;9.83;;;4.63;;
72649;SDS011;61467;50.674;4.618;2023-04-15T06:45:24;8.88;;;4.75;;
72649;SDS011;61467;50.674;4.618;2023-04-15T06:47:51;9.57;;;4.15;;
72649;SDS011;61467;50.674;4.618;2023-04-15T06:50:18;9.93;;;4.50;;
72649;SDS011;61467;50.674;4.618;2023-04-15T06:52:48;11.23;;;5.28;;
72649;SDS011;61467;50.674;4.618;2023-04-15T06:55:16;12.23;;;4.97;;
72649;SDS011;61467;50.674;4.618;2023-04-15T06:57:42;9.88;;;5.20;;
72649;SDS011;61467;50.674;4.618;2023-04-15T07:00:10;9.20;;;5.10;;
72649;SDS011;61467;50.674;4.618;2023-04-15T07:02:37;11.82;;;5.53;;
72649;SDS011;61467;50.674;4.618;2023-04-15T07:05:04;9.27;;;4.80;;
72649;SDS011;61467;50.674;4.618;2023-04-15T07:07:32;11.73;;;5.50;;
72649;SDS011;61467;50.674;4.618;2023-04-15T07:10:01;10.63;;;5.10;;
72649;SDS011;61467;50.674;4.618;2023-04-15T07:12:28;9.75;;;4.97;;
72649;SDS011;61467;50.674;4.618;2023-04-15T07:14:55;10.52;;;5.60;;
72649;SDS011;61467;50.674;4.618;2023-04-15T07:17:22;11.68;;;5.40;;
72649;SDS011;61467;50.674;4.618;2023-04-15T07:19:49;10.60;;;5.20;;
72649;SDS011;61467;50.674;4.618;2023-04-15T07:22:16;9.82;;;5.07;;
72649;SDS011;61467;50.674;4.618;2023-04-15T07:24:43;9.20;;;4.90;;
72649;SDS011;61467;50.674;4.618;2023-04-15T07:27:11;10.75;;;4.78;;
72649;SDS011;61467;50.674;4.618;2023-04-15T07:29:38;10.40;;;4.82;;
72649;SDS011;61467;50.674;4.618;2023-04-15T07:32:05;9.47;;;4.67;;
72649;SDS011;61467;50.674;4.618;2023-04-15T07:34:32;11.90;;;4.53;;
72649;SDS011;61467;50.674;4.618;2023-04-15T07:36:59;10.30;;;4.63;;
72649;SDS011;61467;50.674;4.618;2023-04-15T07:39:26;11.35;;;5.38;;
72649;SDS011;61467;50.674;4.618;2023-04-15T07:41:53;8.73;;;4.43;;
72649;SDS011;61467;50.674;4.618;2023-04-15T07:44:21;8.93;;;3.70;;
72649;SDS011;61467;50.674;4.618;2023-04-15T07:46:48;11.30;;;4.10;;
72649;SDS011;61467;50.674;4.618;2023-04-15T07:49:15;9.07;;;3.95;;
72649;SDS011;61467;50.674;4.618;2023-04-15T07:51:43;9.32;;;4.10;;
72649;SDS011;61467;50.674;4.618;2023-04-15T07:54:10;7.63;;;3.67;;
72649;SDS011;61467;50.674;4.618;2023-04-15T07:56:37;11.47;;;3.50;;
72649;SDS011;61467;50.674;4.618;2023-04-15T07:59:04;9.13;;;3.60;;
72649;SDS011;61467;50.674;4.618;2023-04-15T08:01:32;8.07;;;3.38;;
72649;SDS011;61467;50.674;4.618;2023-04-15T08:03:59;10.18;;;4.20;;
72649;SDS011;61467;50.674;4.618;2023-04-15T08:06:27;12.15;;;4.13;;
72649;SDS011;61467;50.674;4.618;2023-04-15T08:08:54;9.70;;;4.07;;
72649;SDS011;61467;50.674;4.618;2023-04-15T08:11:21;8.75;;;4.10;;
72649;SDS011;61467;50.674;4.618;2023-04-15T08:13:49;8.55;;;4.40;;
72649;SDS011;61467;50.674;4.618;2023-04-15T08:16:18;9.70;;;4.50;;
72649;SDS011;61467;50.674;4.618;2023-04-15T08:18:48;9.15;;;4.65;;
72649;SDS011;61467;50.674;4.618;2023-04-15T08:21:15;10.10;;;4.53;;
72649;SDS011;61467;50.674;4.618;2023-04-15T08:23:43;10.52;;;4.90;;
72649;SDS011;61467;50.674;4.618;2023-04-15T08:26:10;12.27;;;5.20;;
72649;SDS011;61467;50.674;4.618;2023-04-15T08:28:39;11.10;;;5.07;;
72649;SDS011;61467;50.674;4.618;2023-04-15T08:31:07;9.45;;;4.30;;
72649;SDS011;61467;50.674;4.618;2023-04-15T08:33:34;10.23;;;4.80;;
72649;SDS011;61467;50.674;4.618;2023-04-15T08:36:02;11.35;;;4.90;;
72649;SDS011;61467;50.674;4.618;2023-04-15T08:38:30;10.88;;;4.72;;
72649;SDS011;61467;50.674;4.618;2023-04-15T08:40:57;10.15;;;4.53;;
72649;SDS011;61467;50.674;4.618;2023-04-15T08:43:26;13.70;;;5.43;;
72649;SDS011;61467;50.674;4.618;2023-04-15T08:45:54;11.77;;;4.70;;
72649;SDS011;61467;50.674;4.618;2023-04-15T08:48:23;9.85;;;4.57;;
72649;SDS011;61467;50.674;4.618;2023-04-15T08:50:53;9.02;;;4.45;;
72649;SDS011;61467;50.674;4.618;2023-04-15T08:53:22;11.70;;;4.68;;
72649;SDS011;61467;50.674;4.618;2023-04-15T08:55:50;10.48;;;5.05;;
72649;SDS011;61467;50.674;4.618;2023-04-15T08:58:18;12.60;;;5.10;;
72649;SDS011;61467;50.674;4.618;2023-04-15T09:00:45;10.13;;;4.75;;
72649;SDS011;61467;50.674;4.618;2023-04-15T09:03:12;10.77;;;3.90;;
72649;SDS011;61467;50.674;4.618;2023-04-15T09:05:40;11.38;;;4.50;;
72649;SDS011;61467;50.674;4.618;2023-04-15T09:08:07;9.70;;;4.00;;
72649;SDS011;61467;50.674;4.618;2023-04-15T09:10:36;11.00;;;4.00;;
72649;SDS011;61467;50.674;4.618;2023-04-15T09:13:03;12.50;;;4.20;;
72649;SDS011;61467;50.674;4.618;2023-04-15T09:15:30;12.18;;;4.28;;
72649;SDS011;61467;50.674;4.618;2023-04-15T09:17:58;8.55;;;3.53;;
72649;SDS011;61467;50.674;4.618;2023-04-15T09:20:25;10.52;;;4.40;;
72649;SDS011;61467;50.674;4.618;2023-04-15T09:22:52;9.97;;;4.17;;
72649;SDS011;61467;50.674;4.618;2023-04-15T09:25:25;9.10;;;3.85;;
72649;SDS011;61467;50.674;4.618;2023-04-15T09:28:00;10.15;;;4.65;;
72649;SDS011;61467;50.674;4.618;2023-04-15T09:30:27;8.80;;;3.75;;
72649;SDS011;61467;50.674;4.618;2023-04-15T09:32:55;7.88;;;3.70;;
72649;SDS011;61467;50.674;4.618;2023-04-15T09:35:26;10.10;;;4.20;;
72649;SDS011;61467;50.674;4.618;2023-04-15T09:38:00;9.90;;;3.50;;
72649;SDS011;61467;50.674;4.618;2023-04-15T09:40:32;8.70;;;3.67;;
72649;SDS011;61467;50.674;4.618;2023-04-15T09:43:02;10.70;;;4.40;;
72649;SDS011;61467;50.674;4.618;2023-04-15T09:45:29;9.27;;;4.10;;
72649;SDS011;61467;50.674;4.618;2023-04-15T09:47:58;12.07;;;5.47;;
72649;SDS011;61467;50.674;4.618;2023-04-15T09:50:39;12.38;;;4.80;;
72649;SDS011;61467;50.674;4.618;2023-04-15T09:53:08;8.90;;;4.40;;
72649;SDS011;61467;50.674;4.618;2023-04-15T09:55:36;10.95;;;3.83;;
72649;SDS011;61467;50.674;4.618;2023-04-15T09:58:08;9.98;;;4.18;;
72649;SDS011;61467;50.674;4.618;2023-04-15T10:00:44;10.43;;;5.13;;
72649;SDS011;61467;50.674;4.618;2023-04-15T10:03:13;12.27;;;5.72;;
72649;SDS011;61467;50.674;4.618;2023-04-15T10:05:43;11.18;;;5.88;;
72649;SDS011;61467;50.674;4.618;2023-04-15T10:08:12;12.40;;;4.90;;
72649;SDS011;61467;50.674;4.618;2023-04-15T10:10:41;14.75;;;5.40;;
72649;SDS011;61467;50.674;4.618;2023-04-15T10:13:09;12.53;;;5.97;;
72649;SDS011;61467;50.674;4.618;2023-04-15T10:15:37;15.35;;;6.13;;
72649;SDS011;61467;50.674;4.618;2023-04-15T10:18:04;10.88;;;5.53;;
72649;SDS011;61467;50.674;4.618;2023-04-15T10:20:34;11.40;;;5.40;;
72649;SDS011;61467;50.674;4.618;2023-04-15T10:23:02;10.70;;;4.82;;
72649;SDS011;61467;50.674;4.618;2023-04-15T10:25:29;10.43;;;4.63;;
72649;SDS011;61467;50.674;4.618;2023-04-15T10:27:57;8.10;;;4.07;;
72649;SDS011;61467;50.674;4.618;2023-04-15T10:30:27;10.55;;;4.43;;
72649;SDS011;61467;50.674;4.618;2023-04-15T10:32:55;9.90;;;5.00;;
72649;SDS011;61467;50.674;4.618;2023-04-15T10:35:23;8.38;;;4.30;;
72649;SDS011;61467;50.674;4.618;2023-04-15T10:37:50;10.00;;;3.80;;
72649;SDS011;61467;50.674;4.618;2023-04-15T10:40:24;9.43;;;4.13;;
72649;SDS011;61467;50.674;4.618;2023-04-15T10:42:56;9.82;;;4.55;;
72649;SDS011;61467;50.674;4.618;2023-04-15T10:45:31;10.57;;;5.13;;
72649;SDS011;61467;50.674;4.618;2023-04-15T10:48:01;10.38;;;4.70;;
72649;SDS011;61467;50.674;4.618;2023-04-15T10:50:29;9.00;;;4.60;;
72649;SDS011;61467;50.674;4.618;2023-04-15T10:52:58;11.40;;;4.55;;
72649;SDS011;61467;50.674;4.618;2023-04-15T10:55:30;10.52;;;4.82;;
72649;SDS011;61467;50.674;4.618;2023-04-15T10:57:58;8.20;;;4.40;;
72649;SDS011;61467;50.674;4.618;2023-04-15T11:00:29;10.60;;;4.00;;
72649;SDS011;61467;50.674;4.618;2023-04-15T11:02:57;7.23;;;3.40;;
72649;SDS011;61467;50.674;4.618;2023-04-15T11:05:48;8.02;;;3.28;;
72649;SDS011;61467;50.674;4.618;2023-04-15T11:08:17;8.43;;;3.63;;
72649;SDS011;61467;50.674;4.618;2023-04-15T11:10:52;7.82;;;2.90;;
72649;SDS011;61467;50.674;4.618;2023-04-15T11:13:20;7.05;;;3.10;;
72649;SDS011;61467;50.674;4.618;2023-04-15T11:15:58;7.50;;;2.97;;
72649;SDS011;61467;50.674;4.618;2023-04-15T11:18:26;6.72;;;2.80;;
72649;SDS011;61467;50.674;4.618;2023-04-15T11:20:59;9.00;;;3.10;;
72649;SDS011;61467;50.674;4.618;2023-04-15T11:23:37;8.35;;;2.67;;
72649;SDS011;61467;50.674;4.618;2023-04-15T11:26:05;7.10;;;3.08;;
72649;SDS011;61467;50.674;4.618;2023-04-15T11:28:36;7.67;;;2.80;;
72649;SDS011;61467;50.674;4.618;2023-04-15T11:31:09;7.05;;;2.53;;
72649;SDS011;61467;50.674;4.618;2023-04-15T11:33:38;6.00;;;1.85;;
72649;SDS011;61467;50.674;4.618;2023-04-15T11:36:11;7.40;;;2.25;;
72649;SDS011;61467;50.674;4.618;2023-04-15T11:38:41;6.38;;;2.53;;
72649;SDS011;61467;50.674;4.618;2023-04-15T11:41:08;8.17;;;2.20;;
72649;SDS011;61467;50.674;4.618;2023-04-15T11:43:35;6.25;;;2.08;;
72649;SDS011;61467;50.674;4.618;2023-04-15T11:46:02;6.38;;;2.30;;
72649;SDS011;61467;50.674;4.618;2023-04-15T11:48:32;5.63;;;1.88;;
72649;SDS011;61467;50.674;4.618;2023-04-15T11:51:01;5.60;;;2.30;;
72649;SDS011;61467;50.674;4.618;2023-04-15T11:53:37;6.83;;;2.00;;
72649;SDS011;61467;50.674;4.618;2023-04-15T11:56:05;6.88;;;2.20;;
72649;SDS011;61467;50.674;4.618;2023-04-15T11:58:33;6.72;;;2.38;;
72649;SDS011;61467;50.674;4.618;2023-04-15T12:01:02;5.63;;;2.30;;
72649;SDS011;61467;50.674;4.618;2023-04-15T12:03:35;5.57;;;2.28;;
72649;SDS011;61467;50.674;4.618;2023-04-15T12:06:06;7.20;;;2.33;;
72649;SDS011;61467;50.674;4.618;2023-04-15T12:08:48;5.88;;;2.25;;
72649;SDS011;61467;50.674;4.618;2023-04-15T12:11:28;6.88;;;2.22;;
72649;SDS011;61467;50.674;4.618;2023-04-15T12:13:58;7.07;;;1.90;;
72649;SDS011;61467;50.674;4.618;2023-04-15T12:16:29;5.38;;;1.40;;
72649;SDS011;61467;50.674;4.618;2023-04-15T12:18:58;4.53;;;1.30;;
72649;SDS011;61467;50.674;4.618;2023-04-15T12:21:26;4.57;;;1.42;;
72649;SDS011;61467;50.674;4.618;2023-04-15T12:23:54;4.95;;;1.50;;
72649;SDS011;61467;50.674;4.618;2023-04-15T12:26:25;5.93;;;1.60;;
72649;SDS011;61467;50.674;4.618;2023-04-15T12:28:53;5.20;;;1.60;;
72649;SDS011;61467;50.674;4.618;2023-04-15T12:31:21;5.27;;;1.77;;
72649;SDS011;61467;50.674;4.618;2023-04-15T12:33:49;4.80;;;1.50;;
72649;SDS011;61467;50.674;4.618;2023-04-15T12:36:17;6.55;;;1.70;;
72649;SDS011;61467;50.674;4.618;2023-04-15T12:38:44;5.40;;;1.80;;
72649;SDS011;61467;50.674;4.618;2023-04-15T12:41:11;5.05;;;1.75;;
72649;SDS011;61467;50.674;4.618;2023-04-15T12:43:37;5.43;;;1.53;;
72649;SDS011;61467;50.674;4.618;2023-04-15T12:46:04;6.05;;;1.88;;
72649;SDS011;61467;50.674;4.618;2023-04-15T12:48:32;7.43;;;2.08;;
72649;SDS011;61467;50.674;4.618;2023-04-15T12:50:59;5.68;;;1.70;;
72649;SDS011;61467;50.674;4.618;2023-04-15T12:53:27;5.15;;;1.73;;
72649;SDS011;61467;50.674;4.618;2023-04-15T12:55:54;5.17;;;1.57;;
72649;SDS011;61467;50.674;4.618;2023-04-15T12:58:21;5.72;;;1.58;;
72649;SDS011;61467;50.674;4.618;2023-04-15T13:00:48;5.88;;;1.73;;
72649;SDS011;61467;50.674;4.618;2023-04-15T13:03:15;5.68;;;1.67;;
72649;SDS011;61467;50.674;4.618;2023-04-15T13:05:42;6.57;;;1.95;;
72649;SDS011;61467;50.674;4.618;2023-04-15T13:08:08;5.57;;;1.73;;
72649;SDS011;61467;50.674;4.618;2023-04-15T13:10:37;5.97;;;1.98;;
72649;SDS011;61467;50.674;4.618;2023-04-15T13:13:04;5.57;;;1.52;;
72649;SDS011;61467;50.674;4.618;2023-04-15T13:15:31;5.95;;;1.60;;
72649;SDS011;61467;50.674;4.618;2023-04-15T13:17:57;5.20;;;1.58;;
72649;SDS011;61467;50.674;4.618;2023-04-15T13:20:25;5.50;;;1.47;;
72649;SDS011;61467;50.674;4.618;2023-04-15T13:22:52;4.30;;;1.20;;
72649;SDS011;61467;50.674;4.618;2023-04-15T13:25:19;4.40;;;1.35;;
72649;SDS011;61467;50.674;4.618;2023-04-15T13:27:48;5.15;;;1.70;;
72649;SDS011;61467;50.674;4.618;2023-04-15T13:30:15;6.85;;;1.40;;
72649;SDS011;61467;50.674;4.618;2023-04-15T13:32:42;4.43;;;1.30;;
72649;SDS011;61467;50.674;4.618;2023-04-15T13:35:08;4.70;;;1.08;;
72649;SDS011;61467;50.674;4.618;2023-04-15T13:37:35;5.75;;;1.42;;
72649;SDS011;61467;50.674;4.618;2023-04-15T13:40:03;5.32;;;1.77;;
72649;SDS011;61467;50.674;4.618;2023-04-15T13:42:32;5.15;;;1.60;;
72649;SDS011;61467;50.674;4.618;2023-04-15T13:45:00;6.03;;;1.77;;
72649;SDS011;61467;50.674;4.618;2023-04-15T13:47:27;5.35;;;1.70;;
72649;SDS011;61467;50.674;4.618;2023-04-15T13:49:54;5.05;;;1.50;;
72649;SDS011;61467;50.674;4.618;2023-04-15T13:52:21;7.45;;;1.80;;
72649;SDS011;61467;50.674;4.618;2023-04-15T13:54:48;5.22;;;1.80;;
72649;SDS011;61467;50.674;4.618;2023-04-15T13:57:16;4.53;;;1.43;;
72649;SDS011;61467;50.674;4.618;2023-04-15T13:59:43;5.72;;;1.75;;
72649;SDS011;61467;50.674;4.618;2023-04-15T14:02:11;4.72;;;1.30;;
72649;SDS011;61467;50.674;4.618;2023-04-15T14:04:38;6.25;;;1.50;;
72649;SDS011;61467;50.674;4.618;2023-04-15T14:07:04;5.47;;;1.40;;
72649;SDS011;61467;50.674;4.618;2023-04-15T14:09:31;5.23;;;1.30;;
72649;SDS011;61467;50.674;4.618;2023-04-15T14:11:58;4.82;;;1.67;;
72649;SDS011;61467;50.674;4.618;2023-04-15T14:14:26;7.57;;;1.50;;
72649;SDS011;61467;50.674;4.618;2023-04-15T14:16:55;3.78;;;1.10;;
72649;SDS011;61467;50.674;4.618;2023-04-15T14:19:28;5.68;;;1.70;;
72649;SDS011;61467;50.674;4.618;2023-04-15T14:21:56;6.67;;;1.80;;
72649;SDS011;61467;50.674;4.618;2023-04-15T14:24:23;5.68;;;1.63;;
72649;SDS011;61467;50.674;4.618;2023-04-15T14:26:50;7.53;;;1.67;;
72649;SDS011;61467;50.674;4.618;2023-04-15T14:29:17;5.18;;;1.55;;
72649;SDS011;61467;50.674;4.618;2023-04-15T14:31:43;5.00;;;1.40;;
72649;SDS011;61467;50.674;4.618;2023-04-15T14:34:10;5.87;;;2.33;;
72649;SDS011;61467;50.674;4.618;2023-04-15T14:36:39;5.65;;;2.03;;
72649;SDS011;61467;50.674;4.618;2023-04-15T14:39:06;6.18;;;1.77;;
72649;SDS011;61467;50.674;4.618;2023-04-15T14:41:33;7.72;;;1.90;;
72649;SDS011;61467;50.674;4.618;2023-04-15T14:44:00;5.28;;;1.25;;
72649;SDS011;61467;50.674;4.618;2023-04-15T14:46:27;6.13;;;1.47;;
72649;SDS011;61467;50.674;4.618;2023-04-15T14:48:54;4.50;;;1.00;;